Tuesday, September 30, 2014
18:00 UTC
  |  Log In   |  Register Free
Airport Search:

Powell Municipal Airport
(KPOY)

Powell Municipal Airport Diagram
No Airport Diagram Available

FAA data valid effective September 18, 2014 - November 13, 2014 (unless otherwise noted).

 
 
 
 
 
 
 
 
 
 
 
 
 
 

Current Aviation Weather for Powell Municipal Airport (KPOY)

The most recent METAR observation for KPOY was updated at: 1710
METAR Summary (Translated METAR)
KPOY
301655Z AUTO 36004KT 10SM SCT110 12/04 A2975 RMK AO2
KCOD
301655Z AUTO 01006KT 10SM OVC100 13/06 A2977 RMK AO1
(23 nm SW from KPOY)
KGEY
301653Z AUTO 16004KT 10SM BKN110 12/07 A2975 RMK AO2 SLP063 T01170072
(36.8 nm SE from KPOY)
TAF Summary (Translated TAF)
KCOD
301127Z 3012/0112 27010G16KT P6SM FEW150 SCT250 FM301700 VRB05KT P6SM VCSH SCT060 BKN100 FM302000 VRB10G15KT P6SM VCTS SCT040CB BKN080 FM010100 36008KT 5SM -RA BR OVC030 AMD LTD TO CLD VIS AND WIND
  Airport Weather Conditions for KPOY

Current weather conditions are
not available for POY


The nearest NOAA weather station
is at COD, (23 nm SW from POY)
  
 Current Weather at COD
55° F
Overcast
North winds at 6.9 mph
COD NOAA Radar

Pressure: 29.77 in
Humidity: 63%
Wind: North at 6.9 MPH (6 KT)
Dew Point: 42.8°F
Visibility: 10.00 mi


Airport Weather Forecast for KPOY

Translated METAR and TAF for KCOD
Translated METAR for KCOD (1755 UTC 30 September 2014)
found at http://aviationweather.gov/adds/metars/
 
METAR text: KCOD 301735Z AUTO 26008G15KT 230V300 10SM OVC110 15/04 A2977 RMK AO1
Conditions at: KCOD (CODY , WY, US) observed 1735 UTC 30 September 2014
Temperature: 15.0°C (59°F)
Dewpoint: 4.0°C (39°F) [RH = 48%]
Pressure (altimeter): 29.77 inches Hg (1008.2 mb)
Winds: from the W (260 degrees) at 9 MPH (8 knots; 4.2 m/s)
gusting to 17 MPH (15 knots; 7.8 m/s)
Visibility: 10 or more miles (16+ km)
Ceiling: 11000 feet AGL
Clouds: overcast cloud deck at 11000 feet AGL
Weather: automated observation with no human augmentation;
there may or may not be significant weather present at this time
Translated TAF for KCOD
Forecast for: KCOD (CODY , WY, US)
TAF Text: KCOD 301734Z 3018/0118 VRB05KT P6SM VCSH SCT060 BKN100
Forecast period: 1800 to 2000 UTC 30 September 2014
Forecast type: FROM: standard forecast or significant change
Winds: variable direction winds at 6 MPH (5 knots; 2.6 m/s)
Visibility: 6 or more miles (10+ km)
Ceiling: 10000 feet AGL
Clouds: scattered clouds at 6000 feet AGL
broken clouds at 10000 feet AGL
Weather: VCSH  (showers in vicinity)
TAF Text: FM302000 VRB10G15KT P6SM VCTS SCT040CB BKN080
Forecast period: 2000 UTC 30 September 2014 to 0100 UTC 01 October 2014
Forecast type: FROM: standard forecast or significant change
Winds: variable direction winds at 12 MPH (10 knots; 5.2 m/s)
gusting to 17 MPH (15 knots; 7.8 m/s)
Visibility: 6 or more miles (10+ km)
Ceiling: 8000 feet AGL
Clouds: scattered clouds at 4000 feet AGL
broken clouds at 8000 feet AGL
Weather: VCTS  (thunderstorm in vicinity)
TAF Text: FM010100 36008KT 5SM -RA BR OVC030
Forecast period: 0100 to 1200 UTC 01 October 2014
Forecast type: FROM: standard forecast or significant change
Winds: from the N (360 degrees) at 9 MPH (8 knots; 4.2 m/s)
Visibility: 5 miles (8 km)
Ceiling: 3000 feet AGL
Clouds: overcast cloud deck at 3000 feet AGL
Weather: -RA BR  (light rain, mist)
TAF Text: FM011200 01007KT 4SM -RASN SCT012 OVC020
Forecast period: 1200 to 1600 UTC 01 October 2014
Forecast type: FROM: standard forecast or significant change
Winds: from the N (10 degrees) at 8 MPH (7 knots; 3.6 m/s)
Visibility: 4 miles (6 km)
Ceiling: 2000 feet AGL
Clouds: scattered clouds at 1200 feet AGL
overcast cloud deck at 2000 feet AGL
Weather: -RA -SN  (light rain, light snow)
TAF Text: FM011600 01007KT P6SM VCSH OVC030 AMD LTD TO CLD VIS AND WIND
Forecast period: 1600 to 1800 UTC 01 October 2014
Forecast type: FROM: standard forecast or significant change
Winds: from the N (10 degrees) at 8 MPH (7 knots; 3.6 m/s)
Visibility: 6 or more miles (10+ km)
Ceiling: 3000 feet AGL
Clouds: overcast cloud deck at 3000 feet AGL
Weather: VCSH  (showers in vicinity)

Find All Airport Services Find A Hotel Find A Rental Car Find A Golf Course Find A Restaurant $100 Hamburger



FBO's on the Field
FBO Company Facility Photos Services Transportation Aviation Fuel Prices: Prices include tax
Catering Weather Repair Courtesy Rental Type 100LL JetA JetA+ MOGAS 8087
 
City of Powell

This FBO has not yet been rated
FS:Independent
Last Updated: Aug-20
Login to update fuel prices
SS:
Contact City of PowellMore FBO Information
 
Add another FBO Facility Photos Catering Weather Repair Courtesy Rental Type 100LL JetA JetA+ MOGAS 8087
Services Transportation Aviation Fuel Prices: Prices include tax


model-print
model-print
model-print
model-print